Time;durP1;ratioP1;P1;durP2;ratioP2;P2;SDS_P1;SDS_P2;PMS_P1;PMS_P2;Temp;Humidity;BMP_temperature;BMP_pressure;BME280_temperature;BME280_humidity;BME280_pressure;Samples;Min_cycle;Max_cycle;Signal;HPM_P1;HPM_P2
2022/03/05 00:00:35;;;;;;;5.03;4.64;;;;;;;2.65;73.03;99710.87;457666;112;922863;-70
2022/03/05 00:01:39;;;;;;;4.62;4.32;;;;;;;2.65;73.12;99707.34;457375;114;930418;-71
2022/03/05 00:02:42;;;;;;;5.10;4.78;;;;;;;2.65;73.09;99705.48;465163;114;931024;-69
2022/03/05 00:03:46;;;;;;;5.17;4.79;;;;;;;2.66;73.04;99709.85;462865;112;930394;-69
2022/03/05 00:04:49;;;;;;;4.61;4.31;;;;;;;2.66;72.98;99712.55;458725;112;930577;-70
2022/03/05 00:05:52;;;;;;;4.84;4.54;;;;;;;2.66;72.71;99704.47;457380;114;923085;-70
2022/03/05 00:06:56;;;;;;;5.09;4.72;;;;;;;2.66;72.92;99706.33;458659;112;923020;-70
2022/03/05 00:08:03;;;;;;;4.41;4.11;;;;;;;2.66;72.89;99711.70;459921;114;922840;-70
2022/03/05 00:09:06;;;;;;;5.76;5.36;;;;;;;2.65;72.96;99713.56;464904;114;922561;-70
2022/03/05 00:10:10;;;;;;;5.60;5.12;;;;;;;2.65;72.91;99710.03;464337;112;922648;-70
2022/03/05 00:11:13;;;;;;;4.94;4.64;;;;;;;2.64;72.88;99714.61;460560;112;922580;-69
2022/03/05 00:12:17;;;;;;;5.81;5.41;;;;;;;2.63;72.80;99718.31;457554;114;922498;-70
2022/03/05 00:13:20;;;;;;;5.15;4.75;;;;;;;2.63;72.85;99712.09;457598;114;922587;-72
2022/03/05 00:14:25;;;;;;;4.92;4.62;;;;;;;2.64;72.87;99724.53;461753;112;922871;-73
2022/03/05 00:15:28;;;;;;;4.49;4.19;;;;;;;2.63;72.90;99712.93;459521;114;923183;-69
2022/03/05 00:16:31;;;;;;;5.10;4.79;;;;;;;2.63;72.86;99720.16;457197;114;922481;-71
2022/03/05 00:17:35;;;;;;;4.86;4.56;;;;;;;2.62;72.77;99710.41;462665;112;930773;-71
2022/03/05 00:18:38;;;;;;;4.78;4.48;;;;;;;2.62;72.82;99718.48;458978;114;922781;-72
2022/03/05 00:19:41;;;;;;;5.32;4.92;;;;;;;2.62;72.74;99713.11;457228;114;922599;-72
2022/03/05 00:20:46;;;;;;;5.62;5.22;;;;;;;2.60;72.75;99718.66;457323;114;923091;-70
2022/03/05 00:21:50;;;;;;;5.63;5.24;;;;;;;2.59;72.84;99717.02;461900;112;922631;-69
2022/03/05 00:22:53;;;;;;;5.29;4.89;;;;;;;2.60;72.82;99713.28;457567;112;922867;-71
2022/03/05 00:23:57;;;;;;;4.90;4.59;;;;;;;2.60;72.91;99707.90;464779;114;922928;-72
2022/03/05 00:25:00;;;;;;;5.50;5.10;;;;;;;2.61;72.83;99708.73;461416;112;922621;-72
2022/03/05 00:26:03;;;;;;;5.02;4.63;;;;;;;2.62;72.85;99716.63;458250;114;922584;-70
2022/03/05 00:27:08;;;;;;;6.01;5.54;;;;;;;2.62;72.80;99718.48;465324;113;922952;-71
2022/03/05 00:28:11;;;;;;;7.66;5.09;;;;;;;2.62;72.71;99713.94;461257;112;923371;-71
2022/03/05 00:29:14;;;;;;;5.24;4.88;;;;;;;2.62;72.79;99715.80;460937;113;930546;-70
2022/03/05 00:30:19;;;;;;;5.01;4.70;;;;;;;2.62;72.57;99713.94;458251;114;923393;-71
2022/03/05 00:31:24;;;;;;;5.26;4.87;;;;;;;2.62;72.71;99715.80;459780;112;922610;-71
2022/03/05 00:32:27;;;;;;;5.28;4.97;;;;;;;2.62;72.68;99716.63;459283;112;922659;-70
2022/03/05 00:33:31;;;;;;;5.10;4.76;;;;;;;2.61;72.63;99720.34;462647;114;922797;-71
2022/03/05 00:34:34;;;;;;;5.10;4.80;;;;;;;2.61;72.72;99717.65;464387;113;922716;-70
2022/03/05 00:35:38;;;;;;;4.64;4.32;;;;;;;2.61;72.64;99722.19;461481;112;922616;-72
2022/03/05 00:36:41;;;;;;;5.48;5.11;;;;;;;2.60;72.61;99724.05;460469;114;922468;-70
2022/03/05 00:37:44;;;;;;;5.21;4.81;;;;;;;2.59;72.68;99724.25;465425;114;922607;-71
2022/03/05 00:38:48;;;;;;;5.48;5.12;;;;;;;2.58;72.59;99720.72;461322;113;922690;-71
2022/03/05 00:39:51;;;;;;;5.12;4.81;;;;;;;2.57;72.64;99724.42;461507;112;922573;-70
2022/03/05 00:40:54;;;;;;;5.00;4.70;;;;;;;2.56;72.66;99722.75;465336;114;922531;-69
2022/03/05 00:41:57;;;;;;;4.77;4.39;;;;;;;2.57;72.62;99727.12;459811;112;922636;-70
2022/03/05 00:43:01;;;;;;;5.28;4.85;;;;;;;2.55;72.66;99721.07;461016;112;922482;-72
2022/03/05 00:44:04;;;;;;;5.10;4.71;;;;;;;2.55;72.67;99721.07;457954;112;923028;-69
2022/03/05 00:45:08;;;;;;;5.13;4.73;;;;;;;2.55;72.57;99723.77;457516;112;922849;-72
2022/03/05 00:46:12;;;;;;;4.95;4.65;;;;;;;2.54;72.61;99722.09;460934;113;930616;-70
2022/03/05 00:47:15;;;;;;;4.62;4.33;;;;;;;2.53;72.60;99722.30;456821;114;922875;-70
2022/03/05 00:48:19;;;;;;;4.62;4.32;;;;;;;2.53;72.63;99716.91;456619;114;923260;-70
2022/03/05 00:49:23;;;;;;;5.69;5.29;;;;;;;2.53;72.69;99717.75;460209;113;930498;-70
2022/03/05 00:50:26;;;;;;;5.70;5.35;;;;;;;2.53;72.76;99723.13;456807;113;922588;-70
2022/03/05 00:51:29;;;;;;;5.44;5.14;;;;;;;2.54;72.73;99724.78;464050;114;922456;-69
2022/03/05 00:52:33;;;;;;;5.65;5.26;;;;;;;2.54;72.73;99724.78;462576;113;922538;-70
2022/03/05 00:53:36;;;;;;;4.81;4.50;;;;;;;2.55;72.80;99723.77;458099;112;922595;-70
2022/03/05 00:54:40;;;;;;;5.33;4.92;;;;;;;2.57;72.75;99729.81;461940;114;922666;-69
2022/03/05 00:55:45;;;;;;;5.54;5.21;;;;;;;2.58;72.63;99725.27;462271;114;922523;-70
2022/03/05 00:56:48;;;;;;;4.66;4.36;;;;;;;2.56;72.63;99722.75;459531;113;922570;-71
2022/03/05 00:57:51;;;;;;;5.01;4.66;;;;;;;2.56;72.70;99730.83;458918;114;922875;-69
2022/03/05 00:58:55;;;;;;;5.44;5.11;;;;;;;2.57;72.64;99739.73;456320;114;930556;-69
2022/03/05 00:59:58;;;;;;;5.34;4.97;;;;;;;2.56;72.61;99728.13;458815;112;922890;-70
2022/03/05 01:01:01;;;;;;;8.15;4.89;;;;;;;2.55;72.67;99739.91;457608;114;922497;-71
2022/03/05 01:02:05;;;;;;;5.47;5.10;;;;;;;2.54;72.61;99735.55;456274;114;922450;-70
2022/03/05 01:03:08;;;;;;;6.06;5.31;;;;;;;2.55;72.67;99737.22;458696;113;930549;-70
2022/03/05 01:04:12;;;;;;;5.87;5.49;;;;;;;2.56;72.66;99732.67;457284;114;930569;-70
2022/03/05 01:05:15;;;;;;;5.48;5.08;;;;;;;2.55;72.65;99734.53;457036;114;930716;-70
2022/03/05 01:06:20;;;;;;;4.86;4.46;;;;;;;2.56;72.66;99736.20;456384;112;922615;-70
2022/03/05 01:07:23;;;;;;;5.08;4.78;;;;;;;2.55;72.67;99731.84;456785;114;922808;-70
2022/03/05 01:08:26;;;;;;;4.62;4.33;;;;;;;2.54;72.65;99740.92;456330;114;922482;-70
2022/03/05 01:09:30;;;;;;;5.24;4.84;;;;;;;2.53;72.64;99731.20;458791;113;922531;-70
2022/03/05 01:10:33;;;;;;;4.76;4.46;;;;;;;2.52;72.72;99737.60;458739;112;930668;-70
2022/03/05 01:11:37;;;;;;;4.55;4.25;;;;;;;2.52;72.66;99732.22;456353;114;922563;-70
2022/03/05 01:12:40;;;;;;;5.19;4.79;;;;;;;2.52;72.69;99740.29;457435;113;922436;-71
2022/03/05 01:13:44;;;;;;;4.79;4.49;;;;;;;2.51;72.64;99734.07;460543;113;922668;-69
2022/03/05 01:14:47;;;;;;;5.68;5.29;;;;;;;2.53;72.70;99733.89;461546;114;922494;-70
2022/03/05 01:15:50;;;;;;;5.33;4.93;;;;;;;2.51;72.71;99736.77;463655;113;923006;-69
2022/03/05 01:16:54;;;;;;;4.84;4.49;;;;;;;2.53;72.76;99731.20;459352;113;922672;-71
2022/03/05 01:17:58;;;;;;;5.63;5.23;;;;;;;2.55;72.71;99731.84;457150;114;922493;-70
2022/03/05 01:19:02;;;;;;;5.69;5.30;;;;;;;2.56;72.70;99728.13;461018;114;922586;-69
2022/03/05 01:20:07;;;;;;;5.64;5.24;;;;;;;2.57;72.73;99735.19;460449;113;922907;-70
2022/03/05 01:21:10;;;;;;;5.15;4.79;;;;;;;2.58;72.72;99730.65;457541;113;930543;-70
2022/03/05 01:22:14;;;;;;;5.17;4.82;;;;;;;2.58;72.72;99733.34;456419;114;922523;-70
2022/03/05 01:23:17;;;;;;;5.29;4.99;;;;;;;2.59;72.76;99733.16;462479;113;922650;-72
2022/03/05 01:24:20;;;;;;;5.44;5.04;;;;;;;2.59;72.76;99738.55;460179;113;930473;-70
2022/03/05 01:25:23;;;;;;;6.01;5.61;;;;;;;2.59;72.80;99726.94;456603;114;922464;-71
2022/03/05 01:26:29;;;;;;;5.11;4.81;;;;;;;2.58;72.80;99730.65;462954;113;922983;-70
2022/03/05 01:27:32;;;;;;;5.44;5.08;;;;;;;2.56;72.82;99733.52;461212;112;922637;-70
2022/03/05 01:28:35;;;;;;;6.28;5.86;;;;;;;2.55;72.90;99731.84;447373;118;923151;-70
2022/03/05 01:29:38;;;;;;;4.99;4.63;;;;;;;2.56;72.96;99730.83;447373;118;922584;-71
2022/03/05 01:30:42;;;;;;;5.32;4.92;;;;;;;2.56;72.92;99733.52;447181;117;922973;-71
2022/03/05 01:31:45;;;;;;;4.83;4.53;;;;;;;2.56;72.94;99733.52;438461;117;923087;-70
2022/03/05 01:32:48;;;;;;;4.81;4.51;;;;;;;2.59;72.94;99732.33;451770;116;922577;-71
2022/03/05 01:33:52;;;;;;;4.65;4.35;;;;;;;2.58;72.88;99730.65;448105;115;930605;-71
2022/03/05 01:34:55;;;;;;;4.92;4.62;;;;;;;2.58;72.88;99731.48;451092;115;922651;-70
2022/03/05 01:35:58;;;;;;;5.07;4.70;;;;;;;2.57;72.93;99729.81;454968;116;922592;-70
2022/03/05 01:37:02;;;;;;;5.03;4.72;;;;;;;2.56;72.93;99735.37;453456;116;922630;-70
2022/03/05 01:38:05;;;;;;;5.16;4.86;;;;;;;2.56;72.95;99728.13;451103;115;922793;-71
2022/03/05 01:39:08;;;;;;;5.06;4.72;;;;;;;2.57;73.07;99727.12;448805;116;930605;-70
2022/03/05 01:40:13;;;;;;;4.54;4.27;;;;;;;2.57;72.98;99727.12;448414;116;922612;-69
2022/03/05 01:41:16;;;;;;;4.91;4.51;;;;;;;2.59;73.02;99724.25;450849;115;922839;-69
2022/03/05 01:42:21;;;;;;;4.83;4.53;;;;;;;2.58;73.00;99718.03;448025;115;930494;-69
2022/03/05 01:43:24;;;;;;;5.07;4.71;;;;;;;2.58;72.97;99726.10;448071;116;922590;-69
2022/03/05 01:44:27;;;;;;;4.93;4.30;;;;;;;2.59;72.92;99724.25;452130;115;923040;-70
2022/03/05 01:45:31;;;;;;;5.23;4.93;;;;;;;2.60;72.85;99720.52;448429;115;922874;-69
2022/03/05 01:46:37;;;;;;;4.36;4.06;;;;;;;2.59;72.89;99719.71;457015;114;930515;-71
2022/03/05 01:47:42;;;;;;;4.96;4.56;;;;;;;2.60;72.88;99728.59;463063;111;926317;-70
2022/03/05 01:48:45;;;;;;;4.97;4.59;;;;;;;2.60;72.92;99723.20;458866;112;922602;-70
2022/03/05 01:49:48;;;;;;;5.07;4.69;;;;;;;2.60;72.84;99725.90;462315;113;930458;-69
2022/03/05 01:50:51;;;;;;;4.66;4.36;;;;;;;2.61;72.89;99732.95;458064;112;922618;-70
2022/03/05 01:51:55;;;;;;;4.74;4.44;;;;;;;2.62;72.86;99727.40;460991;111;922567;-71
2022/03/05 01:52:58;;;;;;;4.21;3.91;;;;;;;2.64;72.85;99727.22;465013;114;922579;-70
2022/03/05 01:54:01;;;;;;;4.63;4.33;;;;;;;2.64;72.92;99727.22;461464;114;922694;-71
2022/03/05 01:55:06;;;;;;;4.72;4.42;;;;;;;2.63;72.79;99734.45;462117;112;922500;-70
2022/03/05 01:56:10;;;;;;;4.55;4.23;;;;;;;2.64;72.85;99735.30;459241;112;926595;-69
2022/03/05 01:57:13;;;;;;;4.37;4.06;;;;;;;2.64;72.90;99732.61;457101;114;930652;-69
2022/03/05 01:58:17;;;;;;;4.51;4.21;;;;;;;2.66;72.87;99733.23;462390;111;922637;-70
2022/03/05 01:59:20;;;;;;;4.48;4.16;;;;;;;2.66;72.76;99727.85;461913;112;922763;-70
2022/03/05 02:00:23;;;;;;;4.01;3.71;;;;;;;2.65;72.71;99732.39;465146;113;923156;-70
2022/03/05 02:01:28;;;;;;;4.66;4.36;;;;;;;2.65;72.77;99728.87;464201;113;931041;-69
2022/03/05 02:02:31;;;;;;;4.27;3.94;;;;;;;2.66;72.71;99731.38;462708;111;922931;-71
2022/03/05 02:03:37;;;;;;;4.33;3.97;;;;;;;2.67;72.72;99734.91;457372;114;930524;-69
2022/03/05 02:04:40;;;;;;;4.21;3.91;;;;;;;2.68;72.73;99725.83;464932;114;922581;-70
2022/03/05 02:05:45;;;;;;;4.20;3.90;;;;;;;2.69;72.67;99731.03;461355;111;922671;-70
2022/03/05 02:06:48;;;;;;;3.85;3.61;;;;;;;2.71;72.68;99736.20;458014;112;922893;-70
2022/03/05 02:07:51;;;;;;;3.96;3.76;;;;;;;2.72;72.62;99732.50;457384;114;922771;-70
2022/03/05 02:08:57;;;;;;;3.65;3.41;;;;;;;2.72;72.54;99733.34;459420;112;922706;-71
2022/03/05 02:10:01;;;;;;;3.68;3.41;;;;;;;2.73;72.51;99735.02;459568;114;922539;-70
2022/03/05 02:11:05;;;;;;;3.68;3.42;;;;;;;2.74;72.50;99734.00;459707;114;922583;-70
2022/03/05 02:12:08;;;;;;;3.69;3.40;;;;;;;2.75;72.47;99735.68;458513;112;930589;-70
2022/03/05 02:13:11;;;;;;;4.25;3.95;;;;;;;2.74;72.35;99735.85;462646;111;923098;-69
2022/03/05 02:14:18;;;;;;;4.29;3.99;;;;;;;2.74;72.37;99730.47;457066;114;930545;-69
2022/03/05 02:15:21;;;;;;;4.10;3.80;;;;;;;2.75;72.35;99732.98;464128;113;922547;-69
2022/03/05 02:16:25;;;;;;;4.72;4.42;;;;;;;2.76;72.36;99734.63;461108;111;922531;-69
2022/03/05 02:17:29;;;;;;;4.09;3.79;;;;;;;2.78;72.32;99748.75;457856;114;922569;-68
2022/03/05 02:18:32;;;;;;;4.34;3.99;;;;;;;2.79;72.31;99739.66;464769;114;922432;-68
2022/03/05 02:19:35;;;;;;;4.66;4.35;;;;;;;2.80;72.38;99741.34;460058;112;922622;-70
2022/03/05 02:20:39;;;;;;;4.69;4.39;;;;;;;2.82;72.32;99749.20;461401;111;922631;-70
2022/03/05 02:21:46;;;;;;;4.43;4.13;;;;;;;2.84;72.32;99753.40;457228;114;930539;-70
2022/03/05 02:22:49;;;;;;;4.26;3.96;;;;;;;2.87;72.11;99749.48;461857;112;923031;-69
2022/03/05 02:23:53;;;;;;;4.61;4.33;;;;;;;2.88;71.92;99751.16;460109;111;922607;-71
2022/03/05 02:24:59;;;;;;;4.22;3.92;;;;;;;2.88;71.88;99761.92;464935;114;922538;-68
2022/03/05 02:26:03;;;;;;;4.77;4.47;;;;;;;2.87;71.82;99754.86;458659;112;922544;-70
2022/03/05 02:27:07;;;;;;;4.21;3.91;;;;;;;2.84;71.73;99758.78;460973;111;922959;-68
2022/03/05 02:28:11;;;;;;;4.35;4.05;;;;;;;2.82;71.69;99768.05;460080;114;922655;-71
2022/03/05 02:29:14;;;;;;;4.83;4.51;;;;;;;2.77;71.61;99760.53;457402;113;922953;-68
2022/03/05 02:30:18;;;;;;;4.54;4.16;;;;;;;2.74;71.59;99758.23;459920;112;923599;-70
2022/03/05 02:31:22;;;;;;;5.12;4.71;;;;;;;2.70;71.56;99764.16;459579;112;922687;-71
2022/03/05 02:32:25;;;;;;;5.51;5.11;;;;;;;2.66;71.71;99765.53;457913;114;922548;-70
2022/03/05 02:33:29;;;;;;;5.60;5.20;;;;;;;2.62;71.81;99764.23;457782;112;922866;-71
2022/03/05 02:34:33;;;;;;;6.52;6.02;;;;;;;2.57;71.86;99772.86;461865;112;923468;-70
2022/03/05 02:35:36;;;;;;;6.62;6.12;;;;;;;2.54;71.87;99769.72;457112;114;925074;-70
2022/03/05 02:36:39;;;;;;;6.45;5.96;;;;;;;2.51;71.98;99762.83;457091;114;922592;-70
2022/03/05 02:37:42;;;;;;;8.56;7.87;;;;;;;2.48;71.95;99766.70;460212;112;922579;-69
2022/03/05 02:38:46;;;;;;;7.84;7.34;;;;;;;2.45;72.03;99777.01;460378;113;923123;-69
2022/03/05 02:39:49;;;;;;;8.07;7.47;;;;;;;2.45;72.06;99779.70;457035;114;922837;-69
2022/03/05 02:40:52;;;;;;;9.14;8.44;;;;;;;2.42;72.10;99772.01;457688;114;923020;-71
2022/03/05 02:41:56;;;;;;;8.28;7.68;;;;;;;2.40;72.19;99774.03;461419;111;923090;-69
2022/03/05 02:42:59;;;;;;;7.75;7.24;;;;;;;2.39;72.21;99762.43;465407;113;922597;-68
2022/03/05 02:44:03;;;;;;;8.03;7.43;;;;;;;2.39;72.33;99772.35;467814;113;922681;-70
2022/03/05 02:45:07;;;;;;;7.97;7.32;;;;;;;2.40;72.39;99772.18;461143;111;923107;-72
2022/03/05 02:46:11;;;;;;;7.48;6.89;;;;;;;2.41;72.36;99773.02;459104;112;922956;-70
2022/03/05 02:47:15;;;;;;;7.90;7.30;;;;;;;2.40;72.35;99772.18;460239;114;930993;-70
2022/03/05 02:48:20;;;;;;;7.62;7.12;;;;;;;2.41;72.36;99773.86;461456;111;930649;-70
2022/03/05 02:49:23;;;;;;;7.94;7.38;;;;;;;2.41;72.31;99776.55;460803;112;923100;-70
2022/03/05 02:50:26;;;;;;;7.21;6.71;;;;;;;2.41;72.24;99771.17;458841;114;922477;-70
2022/03/05 02:51:30;;;;;;;8.68;8.06;;;;;;;2.41;72.28;99773.86;458636;113;922717;-70
2022/03/05 02:52:33;;;;;;;8.52;7.92;;;;;;;2.41;72.28;99773.86;460449;111;922685;-72
2022/03/05 02:53:37;;;;;;;8.38;7.78;;;;;;;2.42;72.20;99780.92;462356;114;922817;-69
2022/03/05 02:54:40;;;;;;;8.46;7.79;;;;;;;2.40;72.14;99774.03;463250;112;923074;-70
2022/03/05 02:55:45;;;;;;;8.64;7.99;;;;;;;2.40;72.17;99776.72;459029;111;923135;-69
2022/03/05 02:56:49;;;;;;;8.64;8.04;;;;;;;2.39;72.30;99778.58;461879;112;922702;-71
2022/03/05 02:57:52;;;;;;;9.14;8.48;;;;;;;2.39;72.21;99775.88;463015;112;922593;-70
2022/03/05 02:58:55;;;;;;;8.78;8.11;;;;;;;2.40;72.20;99776.72;461866;111;922542;-68
2022/03/05 02:59:58;;;;;;;8.95;8.24;;;;;;;2.39;72.15;99777.73;460287;114;922941;-70
2022/03/05 03:01:01;;;;;;;8.41;7.71;;;;;;;2.39;72.14;99786.64;464823;114;922957;-71
2022/03/05 03:02:05;;;;;;;8.90;8.21;;;;;;;2.38;72.19;99784.97;461032;111;922548;-71
2022/03/05 03:03:09;;;;;;;8.96;8.29;;;;;;;2.37;72.12;99777.09;458404;114;922624;-71
2022/03/05 03:04:12;;;;;;;8.49;7.84;;;;;;;2.36;72.07;99775.42;458110;114;929086;-69
2022/03/05 03:05:16;;;;;;;9.33;8.60;;;;;;;2.35;72.09;99779.13;461017;112;930572;-70
2022/03/05 03:06:20;;;;;;;9.41;8.69;;;;;;;2.33;72.07;99778.45;460228;111;922881;-69
2022/03/05 03:07:23;;;;;;;9.61;8.86;;;;;;;2.31;72.05;99770.59;457231;114;923072;-71
2022/03/05 03:08:26;;;;;;;9.26;8.56;;;;;;;2.31;72.14;99772.44;458256;111;922839;-70
2022/03/05 03:09:30;;;;;;;10.35;9.61;;;;;;;2.30;72.15;99776.14;457702;113;922543;-71
2022/03/05 03:10:33;;;;;;;9.69;8.99;;;;;;;2.29;72.17;99772.62;460821;114;922909;-70
2022/03/05 03:11:36;;;;;;;10.87;10.07;;;;;;;2.29;72.20;99771.78;461464;112;922678;-70
2022/03/05 03:12:40;;;;;;;12.02;11.10;;;;;;;2.27;72.25;99771.11;459706;112;923537;-70
2022/03/05 03:13:44;;;;;;;11.10;10.22;;;;;;;2.27;72.26;99771.95;457115;114;922477;-70
2022/03/05 03:14:47;;;;;;;10.28;9.48;;;;;;;2.28;72.31;99776.31;457806;113;923108;-70
2022/03/05 03:15:50;;;;;;;11.35;10.49;;;;;;;2.29;72.29;99777.16;460979;112;922733;-69
2022/03/05 03:16:54;;;;;;;11.89;11.03;;;;;;;2.31;72.26;99780.52;465239;113;922632;-71
2022/03/05 03:17:57;;;;;;;11.69;10.82;;;;;;;2.32;72.27;99779.47;462324;112;926565;-70
2022/03/05 03:19:01;;;;;;;11.76;10.96;;;;;;;2.34;72.03;99780.97;460618;112;930060;-71
2022/03/05 03:20:05;;;;;;;13.54;12.54;;;;;;;2.35;72.01;99789.88;457448;114;922672;-70
2022/03/05 03:21:09;;;;;;;13.27;12.23;;;;;;;2.34;71.95;99780.97;457590;114;927303;-69
2022/03/05 03:22:12;;;;;;;12.16;11.29;;;;;;;2.36;71.84;99786.18;458724;111;922695;-70
2022/03/05 03:23:16;;;;;;;13.01;12.13;;;;;;;2.34;71.75;99783.66;459587;111;930446;-67
2022/03/05 03:24:19;;;;;;;13.19;12.20;;;;;;;2.34;71.73;99785.52;456971;114;930489;-70
2022/03/05 03:25:23;;;;;;;13.58;12.41;;;;;;;2.33;71.67;99791.91;458728;112;923108;-70
2022/03/05 03:26:26;;;;;;;12.77;11.77;;;;;;;2.29;71.62;99783.38;459285;112;923234;-71
2022/03/05 03:27:30;;;;;;;12.22;11.25;;;;;;;2.28;71.65;99783.55;465079;114;922571;-70
2022/03/05 03:28:33;;;;;;;12.39;11.49;;;;;;;2.28;71.67;99794.30;464344;113;923057;-71
2022/03/05 03:29:37;;;;;;;11.94;11.04;;;;;;;2.26;71.64;99785.60;459937;111;922740;-69
2022/03/05 03:30:40;;;;;;;11.45;10.65;;;;;;;2.26;71.61;99785.60;457443;113;922839;-70
2022/03/05 03:31:44;;;;;;;11.79;10.91;;;;;;;2.25;71.61;99794.68;457137;114;922578;-69
2022/03/05 03:32:47;;;;;;;11.48;10.59;;;;;;;2.24;71.62;99795.69;461116;112;930272;-71
2022/03/05 03:33:51;;;;;;;13.12;12.12;;;;;;;2.23;71.67;99789.47;459448;114;922951;-72
2022/03/05 03:34:54;;;;;;;11.83;10.93;;;;;;;2.24;71.72;99785.77;465193;114;922905;-70
2022/03/05 03:35:58;;;;;;;12.64;11.65;;;;;;;2.24;71.72;99783.09;461739;112;922592;-71
2022/03/05 03:37:01;;;;;;;12.78;11.83;;;;;;;2.25;71.66;99784.77;460282;111;922889;-70
2022/03/05 03:38:04;;;;;;;14.28;13.18;;;;;;;2.25;71.55;99790.14;458512;114;922902;-70
2022/03/05 03:39:07;;;;;;;14.46;13.45;;;;;;;2.25;71.49;99789.30;457706;113;922535;-71
2022/03/05 03:40:13;;;;;;;13.34;12.34;;;;;;;2.23;71.52;99791.33;460670;112;922618;-71
2022/03/05 03:41:17;;;;;;;14.55;13.38;;;;;;;2.23;71.53;99797.55;459719;114;930455;-70
2022/03/05 03:42:20;;;;;;;14.58;13.36;;;;;;;2.23;71.51;99791.33;460820;114;922692;-71
2022/03/05 03:43:24;;;;;;;13.38;12.30;;;;;;;2.23;71.51;99788.63;459335;112;922562;-70
2022/03/05 03:44:27;;;;;;;13.49;12.51;;;;;;;2.23;71.43;99794.02;460246;111;930447;-69
2022/03/05 03:45:30;;;;;;;13.09;12.04;;;;;;;2.21;71.42;99794.19;465083;114;923165;-69
2022/03/05 03:46:34;;;;;;;13.75;12.65;;;;;;;2.20;71.45;99794.39;462659;112;922849;-69
2022/03/05 03:47:39;;;;;;;13.53;12.53;;;;;;;2.20;71.43;99797.08;460933;112;930393;-70
2022/03/05 03:48:43;;;;;;;13.48;12.52;;;;;;;2.19;71.39;99796.23;465217;114;922802;-70
2022/03/05 03:49:47;;;;;;;13.93;12.86;;;;;;;2.18;71.26;99799.94;464673;112;922501;-69
2022/03/05 03:50:50;;;;;;;13.78;12.71;;;;;;;2.15;71.22;99800.28;459111;112;922725;-70
2022/03/05 03:51:54;;;;;;;14.41;13.31;;;;;;;2.14;71.17;99792.41;464021;114;922563;-69
2022/03/05 03:52:57;;;;;;;15.57;14.32;;;;;;;2.12;71.28;99797.13;461776;114;922603;-70
2022/03/05 03:54:01;;;;;;;14.64;13.53;;;;;;;2.10;71.29;99798.14;459341;112;922625;-70
2022/03/05 03:55:06;;;;;;;13.90;12.91;;;;;;;2.09;71.23;99792.96;460551;112;922909;-67
2022/03/05 03:56:10;;;;;;;13.99;12.91;;;;;;;2.09;71.25;99801.03;464358;114;923054;-69
2022/03/05 03:57:13;;;;;;;13.77;12.76;;;;;;;2.07;71.27;99795.82;457367;114;922616;-68
2022/03/05 03:58:16;;;;;;;12.96;11.94;;;;;;;2.07;71.26;99794.98;461314;112;922685;-68
2022/03/05 03:59:20;;;;;;;15.16;14.05;;;;;;;2.08;71.27;99802.04;457419;114;922940;-69
2022/03/05 04:00:23;;;;;;;14.86;13.72;;;;;;;2.08;71.21;99804.73;458498;112;922580;-69
2022/03/05 04:01:28;;;;;;;14.23;13.14;;;;;;;2.07;71.14;99805.73;459607;112;923299;-68
2022/03/05 04:02:31;;;;;;;14.50;13.41;;;;;;;2.07;71.16;99811.11;457427;114;922586;-67
2022/03/05 04:03:35;;;;;;;13.66;12.57;;;;;;;2.06;71.13;99814.81;457176;114;922639;-71
2022/03/05 04:04:38;;;;;;;13.79;12.79;;;;;;;2.07;71.14;99808.42;458036;112;930369;-69
2022/03/05 04:05:42;;;;;;;13.99;12.92;;;;;;;2.06;71.13;99810.27;460717;114;922965;-69
2022/03/05 04:09:28;;;;;;;14.28;13.14;;;;;;;2.00;70.96;99815.52;457706;112;923187;-70
2022/03/05 04:10:32;;;;;;;15.06;13.74;;;;;;;1.96;71.00;99828.50;465095;114;923057;-67
2022/03/05 04:11:35;;;;;;;15.46;14.28;;;;;;;1.95;70.96;99821.44;462368;112;922792;-69
2022/03/05 04:12:38;;;;;;;17.11;15.73;;;;;;;1.94;71.14;99827.83;458966;114;922617;-67
2022/03/05 04:13:43;;;;;;;16.97;15.35;;;;;;;1.95;71.13;99825.98;465080;114;922650;-69
2022/03/05 04:14:47;;;;;;;16.33;15.13;;;;;;;1.95;71.28;99825.98;459624;114;930803;-68
2022/03/05 04:15:50;;;;;;;14.61;13.61;;;;;;;1.97;71.22;99832.02;462280;112;922621;-70
2022/03/05 04:16:54;;;;;;;14.16;13.09;;;;;;;1.99;71.08;99832.66;457274;113;922520;-69
2022/03/05 04:17:57;;;;;;;15.27;14.03;;;;;;;2.00;71.04;99834.34;457204;114;922992;-70
2022/03/05 04:19:00;;;;;;;12.56;11.65;;;;;;;2.01;70.92;99836.86;460113;112;922691;-69
2022/03/05 04:20:07;;;;;;;13.43;12.36;;;;;;;2.03;70.66;99840.22;457750;112;930406;-71
2022/03/05 04:21:10;;;;;;;12.58;11.67;;;;;;;2.03;70.67;99844.76;460566;114;922941;-69
2022/03/05 04:22:13;;;;;;;13.46;12.54;;;;;;;2.02;70.64;99843.92;458873;112;922550;-69
2022/03/05 04:23:17;;;;;;;12.81;11.84;;;;;;;2.03;70.56;99845.59;459290;112;922885;-67
2022/03/05 04:24:20;;;;;;;14.31;13.26;;;;;;;2.04;70.66;99844.56;465115;114;922569;-69
2022/03/05 04:25:23;;;;;;;14.83;13.74;;;;;;;2.05;70.62;99848.09;460545;112;922467;-69
2022/03/05 04:26:27;;;;;;;17.49;16.19;;;;;;;2.05;70.57;99845.40;461756;112;922706;-70
2022/03/05 04:27:31;;;;;;;17.71;16.41;;;;;;;2.03;70.32;99845.59;457150;114;930550;-70
2022/03/05 04:28:34;;;;;;;16.04;14.84;;;;;;;2.02;70.30;99849.30;458969;114;923559;-70
2022/03/05 04:29:38;;;;;;;16.52;15.29;;;;;;;2.01;70.30;99844.92;459284;112;922684;-69
2022/03/05 04:30:42;;;;;;;15.42;14.24;;;;;;;2.00;70.36;99840.56;459484;112;922497;-70
2022/03/05 04:31:45;;;;;;;15.71;14.44;;;;;;;1.99;70.27;99852.32;465060;114;922582;-69
2022/03/05 04:32:48;;;;;;;15.21;14.01;;;;;;;1.99;70.38;99848.80;462205;112;922596;-69
2022/03/05 04:33:52;;;;;;;14.30;13.17;;;;;;;1.99;70.41;99852.32;459590;112;925080;-71
2022/03/05 04:34:56;;;;;;;14.51;13.42;;;;;;;2.01;70.39;99858.38;464780;114;922527;-69
2022/03/05 04:36:00;;;;;;;14.84;13.71;;;;;;;2.03;70.42;99856.35;462764;112;923264;-69
2022/03/05 04:37:03;;;;;;;14.89;13.81;;;;;;;2.04;70.37;99854.50;462646;112;922568;-68
2022/03/05 04:38:08;;;;;;;14.13;13.08;;;;;;;2.07;70.29;99856.83;457162;114;922626;-69
2022/03/05 04:39:11;;;;;;;14.56;13.46;;;;;;;2.08;70.16;99861.19;461251;112;930426;-69
2022/03/05 04:40:15;;;;;;;13.69;12.65;;;;;;;2.07;70.06;99854.97;461200;112;930301;-69
2022/03/05 04:41:19;;;;;;;13.99;12.94;;;;;;;2.08;70.01;99858.50;457251;114;922975;-69
2022/03/05 04:42:22;;;;;;;14.40;13.24;;;;;;;2.08;69.96;99855.81;457272;114;922666;-68
2022/03/05 04:43:26;;;;;;;15.19;13.97;;;;;;;2.07;70.05;99854.13;460187;112;923121;-70
2022/03/05 04:44:29;;;;;;;14.20;13.16;;;;;;;2.07;70.07;99857.66;459017;114;922639;-69
2022/03/05 04:45:32;;;;;;;14.49;13.26;;;;;;;2.09;70.02;99860.18;457551;114;922745;-71
2022/03/05 04:46:36;;;;;;;15.03;13.86;;;;;;;2.09;69.98;99869.06;458854;112;930331;-69
2022/03/05 04:47:40;;;;;;;13.76;12.68;;;;;;;2.08;69.85;99862.03;461147;111;930548;-69
2022/03/05 04:48:43;;;;;;;14.54;13.44;;;;;;;2.07;69.62;99867.58;459622;114;922785;-70
2022/03/05 04:49:47;;;;;;;14.01;12.57;;;;;;;2.06;69.64;99872.11;463698;113;922600;-69
2022/03/05 04:50:51;;;;;;;14.01;12.81;;;;;;;2.05;69.67;99874.97;461391;112;923134;-70
2022/03/05 04:51:55;;;;;;;14.18;13.05;;;;;;;2.05;69.69;99877.66;459793;113;922654;-70
2022/03/05 04:52:58;;;;;;;13.13;12.05;;;;;;;2.03;69.53;99874.33;457139;114;923157;-69
2022/03/05 04:54:02;;;;;;;13.48;12.47;;;;;;;2.02;69.50;99881.56;460570;112;923195;-70
2022/03/05 04:55:06;;;;;;;14.55;13.53;;;;;;;2.01;69.43;99876.35;458597;112;922790;-69
2022/03/05 04:56:11;;;;;;;15.08;13.64;;;;;;;2.01;69.55;99881.73;464914;114;930377;-70
2022/03/05 04:57:15;;;;;;;15.07;13.89;;;;;;;2.00;69.64;99885.42;459034;111;922687;-69
2022/03/05 04:58:18;;;;;;;13.99;12.91;;;;;;;2.00;69.56;99885.42;461178;112;922588;-69
2022/03/05 04:59:22;;;;;;;13.41;12.31;;;;;;;1.99;69.55;99884.58;465071;114;922515;-69